sensor_id;sensor_type;location;lat;lon;timestamp;P1;durP1;ratioP1;P2;durP2;ratioP2
58966;SDS011;44744;51.894;5.080;2024-01-11T00:01:23;20.90;;;11.00;;
58966;SDS011;44744;51.894;5.080;2024-01-11T00:06:23;21.00;;;11.00;;
58966;SDS011;44744;51.894;5.080;2024-01-11T00:11:24;17.30;;;10.40;;
58966;SDS011;44744;51.894;5.080;2024-01-11T00:16:24;16.90;;;10.00;;
58966;SDS011;44744;51.894;5.080;2024-01-11T00:21:26;16.20;;;9.40;;
58966;SDS011;44744;51.894;5.080;2024-01-11T00:26:26;17.00;;;9.90;;
58966;SDS011;44744;51.894;5.080;2024-01-11T00:31:27;22.00;;;10.70;;
58966;SDS011;44744;51.894;5.080;2024-01-11T00:36:28;24.60;;;10.40;;
58966;SDS011;44744;51.894;5.080;2024-01-11T00:41:30;16.20;;;9.70;;
58966;SDS011;44744;51.894;5.080;2024-01-11T00:51:36;17.10;;;9.00;;
58966;SDS011;44744;51.894;5.080;2024-01-11T00:56:37;15.80;;;9.10;;
58966;SDS011;44744;51.894;5.080;2024-01-11T01:01:37;16.40;;;8.90;;
58966;SDS011;44744;51.894;5.080;2024-01-11T01:06:38;16.10;;;9.10;;
58966;SDS011;44744;51.894;5.080;2024-01-11T01:11:39;17.80;;;9.80;;
58966;SDS011;44744;51.894;5.080;2024-01-11T01:16:39;15.70;;;8.80;;
58966;SDS011;44744;51.894;5.080;2024-01-11T01:21:40;16.60;;;8.90;;
58966;SDS011;44744;51.894;5.080;2024-01-11T01:26:40;16.60;;;9.30;;
58966;SDS011;44744;51.894;5.080;2024-01-11T01:31:41;15.10;;;9.30;;
58966;SDS011;44744;51.894;5.080;2024-01-11T01:36:42;15.50;;;9.20;;
58966;SDS011;44744;51.894;5.080;2024-01-11T01:41:42;14.30;;;8.70;;
58966;SDS011;44744;51.894;5.080;2024-01-11T01:46:43;16.10;;;9.20;;
58966;SDS011;44744;51.894;5.080;2024-01-11T01:51:43;16.40;;;9.70;;
58966;SDS011;44744;51.894;5.080;2024-01-11T01:56:44;18.50;;;9.90;;
58966;SDS011;44744;51.894;5.080;2024-01-11T02:01:45;15.10;;;9.50;;
58966;SDS011;44744;51.894;5.080;2024-01-11T02:06:46;18.10;;;10.20;;
58966;SDS011;44744;51.894;5.080;2024-01-11T02:11:47;17.20;;;9.80;;
58966;SDS011;44744;51.894;5.080;2024-01-11T02:16:48;17.50;;;9.80;;
58966;SDS011;44744;51.894;5.080;2024-01-11T02:21:49;18.40;;;10.50;;
58966;SDS011;44744;51.894;5.080;2024-01-11T02:27:03;20.70;;;9.90;;
58966;SDS011;44744;51.894;5.080;2024-01-11T02:32:11;18.70;;;10.10;;
58966;SDS011;44744;51.894;5.080;2024-01-11T02:42:13;20.90;;;9.40;;
58966;SDS011;44744;51.894;5.080;2024-01-11T02:47:13;14.40;;;8.60;;
58966;SDS011;44744;51.894;5.080;2024-01-11T02:52:14;15.40;;;8.90;;
58966;SDS011;44744;51.894;5.080;2024-01-11T02:57:14;16.70;;;9.20;;
58966;SDS011;44744;51.894;5.080;2024-01-11T03:02:15;18.80;;;9.60;;
58966;SDS011;44744;51.894;5.080;2024-01-11T03:07:15;16.30;;;9.00;;
58966;SDS011;44744;51.894;5.080;2024-01-11T03:12:16;14.80;;;8.80;;
58966;SDS011;44744;51.894;5.080;2024-01-11T03:17:16;16.90;;;9.40;;
58966;SDS011;44744;51.894;5.080;2024-01-11T03:22:17;14.50;;;8.70;;
58966;SDS011;44744;51.894;5.080;2024-01-11T03:27:17;17.50;;;9.10;;
58966;SDS011;44744;51.894;5.080;2024-01-11T03:32:18;15.80;;;9.10;;
58966;SDS011;44744;51.894;5.080;2024-01-11T03:37:19;19.20;;;10.80;;
58966;SDS011;44744;51.894;5.080;2024-01-11T03:42:20;17.00;;;8.70;;
58966;SDS011;44744;51.894;5.080;2024-01-11T03:47:20;17.70;;;9.90;;
58966;SDS011;44744;51.894;5.080;2024-01-11T03:52:21;20.00;;;10.90;;
58966;SDS011;44744;51.894;5.080;2024-01-11T03:57:22;20.90;;;10.70;;
58966;SDS011;44744;51.894;5.080;2024-01-11T04:02:22;18.90;;;9.80;;
58966;SDS011;44744;51.894;5.080;2024-01-11T04:07:23;19.80;;;10.40;;
58966;SDS011;44744;51.894;5.080;2024-01-11T04:12:24;17.30;;;9.60;;
58966;SDS011;44744;51.894;5.080;2024-01-11T04:17:24;19.20;;;10.60;;
58966;SDS011;44744;51.894;5.080;2024-01-11T04:22:25;18.10;;;10.40;;
58966;SDS011;44744;51.894;5.080;2024-01-11T04:27:28;17.20;;;9.50;;
58966;SDS011;44744;51.894;5.080;2024-01-11T04:32:29;17.80;;;9.90;;
58966;SDS011;44744;51.894;5.080;2024-01-11T04:37:29;16.20;;;9.70;;
58966;SDS011;44744;51.894;5.080;2024-01-11T04:42:29;16.60;;;10.00;;
58966;SDS011;44744;51.894;5.080;2024-01-11T04:47:30;26.70;;;10.50;;
58966;SDS011;44744;51.894;5.080;2024-01-11T04:52:32;20.70;;;10.10;;
58966;SDS011;44744;51.894;5.080;2024-01-11T04:57:33;24.50;;;12.70;;
58966;SDS011;44744;51.894;5.080;2024-01-11T05:02:34;19.50;;;11.70;;
58966;SDS011;44744;51.894;5.080;2024-01-11T05:07:34;23.50;;;13.10;;
58966;SDS011;44744;51.894;5.080;2024-01-11T05:12:37;21.10;;;13.00;;
58966;SDS011;44744;51.894;5.080;2024-01-11T05:17:38;26.60;;;15.00;;
58966;SDS011;44744;51.894;5.080;2024-01-11T05:22:42;29.60;;;15.20;;
58966;SDS011;44744;51.894;5.080;2024-01-11T05:27:43;29.30;;;16.00;;
58966;SDS011;44744;51.894;5.080;2024-01-11T05:32:44;27.60;;;15.50;;
58966;SDS011;44744;51.894;5.080;2024-01-11T05:37:46;32.10;;;17.00;;
58966;SDS011;44744;51.894;5.080;2024-01-11T05:42:47;28.90;;;16.00;;
58966;SDS011;44744;51.894;5.080;2024-01-11T05:47:48;25.20;;;14.40;;
58966;SDS011;44744;51.894;5.080;2024-01-11T05:52:48;23.30;;;14.10;;
58966;SDS011;44744;51.894;5.080;2024-01-11T05:57:49;27.40;;;13.90;;
58966;SDS011;44744;51.894;5.080;2024-01-11T06:02:49;23.70;;;14.70;;
58966;SDS011;44744;51.894;5.080;2024-01-11T06:07:50;28.50;;;17.60;;
58966;SDS011;44744;51.894;5.080;2024-01-11T06:12:56;32.70;;;16.90;;
58966;SDS011;44744;51.894;5.080;2024-01-11T06:17:57;28.10;;;17.10;;
58966;SDS011;44744;51.894;5.080;2024-01-11T06:23:15;36.10;;;17.80;;
58966;SDS011;44744;51.894;5.080;2024-01-11T06:28:17;35.00;;;18.00;;
58966;SDS011;44744;51.894;5.080;2024-01-11T06:33:17;30.10;;;17.70;;
58966;SDS011;44744;51.894;5.080;2024-01-11T06:38:20;31.30;;;18.20;;
58966;SDS011;44744;51.894;5.080;2024-01-11T06:43:24;31.70;;;17.60;;
58966;SDS011;44744;51.894;5.080;2024-01-11T06:48:34;33.30;;;19.10;;
58966;SDS011;44744;51.894;5.080;2024-01-11T06:53:44;34.20;;;19.20;;
58966;SDS011;44744;51.894;5.080;2024-01-11T06:58:45;34.40;;;18.40;;
58966;SDS011;44744;51.894;5.080;2024-01-11T07:03:46;30.80;;;18.00;;
58966;SDS011;44744;51.894;5.080;2024-01-11T07:08:46;37.40;;;20.50;;
58966;SDS011;44744;51.894;5.080;2024-01-11T07:13:49;40.70;;;19.80;;
58966;SDS011;44744;51.894;5.080;2024-01-11T07:18:49;33.20;;;17.90;;
58966;SDS011;44744;51.894;5.080;2024-01-11T07:23:50;33.60;;;19.30;;
58966;SDS011;44744;51.894;5.080;2024-01-11T07:28:51;37.30;;;21.80;;
58966;SDS011;44744;51.894;5.080;2024-01-11T07:33:54;35.40;;;21.30;;
58966;SDS011;44744;51.894;5.080;2024-01-11T07:38:55;34.60;;;20.20;;
58966;SDS011;44744;51.894;5.080;2024-01-11T07:43:56;34.80;;;20.20;;
58966;SDS011;44744;51.894;5.080;2024-01-11T07:48:59;35.70;;;19.60;;
58966;SDS011;44744;51.894;5.080;2024-01-11T07:54:00;34.70;;;20.40;;
58966;SDS011;44744;51.894;5.080;2024-01-11T07:59:00;33.10;;;19.10;;
58966;SDS011;44744;51.894;5.080;2024-01-11T08:04:01;31.50;;;18.00;;
58966;SDS011;44744;51.894;5.080;2024-01-11T08:09:02;32.30;;;19.40;;
58966;SDS011;44744;51.894;5.080;2024-01-11T08:14:04;34.60;;;19.40;;
58966;SDS011;44744;51.894;5.080;2024-01-11T08:19:05;37.00;;;19.80;;
58966;SDS011;44744;51.894;5.080;2024-01-11T08:24:06;32.80;;;18.20;;
58966;SDS011;44744;51.894;5.080;2024-01-11T08:29:07;42.70;;;24.00;;
58966;SDS011;44744;51.894;5.080;2024-01-11T08:34:09;40.20;;;20.70;;
58966;SDS011;44744;51.894;5.080;2024-01-11T08:39:10;39.50;;;22.80;;
58966;SDS011;44744;51.894;5.080;2024-01-11T08:44:12;37.20;;;21.00;;
58966;SDS011;44744;51.894;5.080;2024-01-11T08:49:13;40.20;;;22.30;;
58966;SDS011;44744;51.894;5.080;2024-01-11T08:54:13;37.50;;;21.30;;
58966;SDS011;44744;51.894;5.080;2024-01-11T08:59:16;36.70;;;20.90;;
58966;SDS011;44744;51.894;5.080;2024-01-11T09:04:17;42.10;;;23.10;;
58966;SDS011;44744;51.894;5.080;2024-01-11T09:09:17;38.90;;;22.00;;
58966;SDS011;44744;51.894;5.080;2024-01-11T09:14:18;42.90;;;23.70;;
58966;SDS011;44744;51.894;5.080;2024-01-11T09:19:18;34.70;;;19.80;;
58966;SDS011;44744;51.894;5.080;2024-01-11T09:24:19;51.90;;;24.60;;
58966;SDS011;44744;51.894;5.080;2024-01-11T09:29:19;46.30;;;24.40;;
58966;SDS011;44744;51.894;5.080;2024-01-11T09:34:20;39.50;;;22.80;;
58966;SDS011;44744;51.894;5.080;2024-01-11T09:39:21;43.30;;;23.80;;
58966;SDS011;44744;51.894;5.080;2024-01-11T09:44:24;43.30;;;23.80;;
58966;SDS011;44744;51.894;5.080;2024-01-11T09:49:25;37.10;;;21.30;;
58966;SDS011;44744;51.894;5.080;2024-01-11T09:54:29;38.80;;;21.00;;
58966;SDS011;44744;51.894;5.080;2024-01-11T09:59:31;33.20;;;19.00;;
58966;SDS011;44744;51.894;5.080;2024-01-11T10:04:34;35.20;;;19.50;;
58966;SDS011;44744;51.894;5.080;2024-01-11T10:09:35;31.40;;;18.30;;
58966;SDS011;44744;51.894;5.080;2024-01-11T10:14:36;36.10;;;20.10;;
58966;SDS011;44744;51.894;5.080;2024-01-11T10:19:47;39.40;;;21.10;;
58966;SDS011;44744;51.894;5.080;2024-01-11T10:24:48;32.80;;;20.40;;
58966;SDS011;44744;51.894;5.080;2024-01-11T10:29:49;35.50;;;20.00;;
58966;SDS011;44744;51.894;5.080;2024-01-11T10:34:53;34.00;;;19.70;;
58966;SDS011;44744;51.894;5.080;2024-01-11T10:39:53;34.30;;;20.10;;
58966;SDS011;44744;51.894;5.080;2024-01-11T10:44:59;35.70;;;18.00;;
58966;SDS011;44744;51.894;5.080;2024-01-11T10:50:01;26.80;;;14.70;;
58966;SDS011;44744;51.894;5.080;2024-01-11T10:55:04;28.40;;;14.30;;
58966;SDS011;44744;51.894;5.080;2024-01-11T11:00:05;27.60;;;14.80;;
58966;SDS011;44744;51.894;5.080;2024-01-11T11:05:06;31.20;;;14.70;;
58966;SDS011;44744;51.894;5.080;2024-01-11T11:10:10;37.30;;;17.60;;
58966;SDS011;44744;51.894;5.080;2024-01-11T11:20:14;29.40;;;14.80;;
58966;SDS011;44744;51.894;5.080;2024-01-11T11:25:25;30.80;;;15.40;;
58966;SDS011;44744;51.894;5.080;2024-01-11T11:30:26;30.40;;;15.10;;
58966;SDS011;44744;51.894;5.080;2024-01-11T11:35:27;34.80;;;17.40;;
58966;SDS011;44744;51.894;5.080;2024-01-11T11:40:35;31.40;;;15.60;;
58966;SDS011;44744;51.894;5.080;2024-01-11T11:45:46;28.20;;;15.50;;
58966;SDS011;44744;51.894;5.080;2024-01-11T11:50:52;30.70;;;15.40;;
58966;SDS011;44744;51.894;5.080;2024-01-11T11:56:02;28.20;;;14.30;;
58966;SDS011;44744;51.894;5.080;2024-01-11T12:01:03;31.20;;;16.00;;
58966;SDS011;44744;51.894;5.080;2024-01-11T12:06:07;32.30;;;15.90;;
58966;SDS011;44744;51.894;5.080;2024-01-11T12:11:23;28.30;;;15.80;;
58966;SDS011;44744;51.894;5.080;2024-01-11T12:16:24;28.00;;;15.20;;
58966;SDS011;44744;51.894;5.080;2024-01-11T12:21:26;25.50;;;14.60;;
58966;SDS011;44744;51.894;5.080;2024-01-11T12:26:28;27.00;;;15.50;;
58966;SDS011;44744;51.894;5.080;2024-01-11T12:31:29;29.70;;;15.80;;
58966;SDS011;44744;51.894;5.080;2024-01-11T12:36:30;25.20;;;14.00;;
58966;SDS011;44744;51.894;5.080;2024-01-11T12:41:31;27.80;;;15.20;;
58966;SDS011;44744;51.894;5.080;2024-01-11T12:46:32;26.50;;;15.40;;
58966;SDS011;44744;51.894;5.080;2024-01-11T12:51:35;25.80;;;14.60;;
58966;SDS011;44744;51.894;5.080;2024-01-11T12:56:36;24.80;;;13.60;;
58966;SDS011;44744;51.894;5.080;2024-01-11T13:01:41;23.30;;;13.40;;
58966;SDS011;44744;51.894;5.080;2024-01-11T13:06:42;21.60;;;12.80;;
58966;SDS011;44744;51.894;5.080;2024-01-11T13:11:42;23.80;;;14.00;;
58966;SDS011;44744;51.894;5.080;2024-01-11T13:16:43;23.20;;;12.80;;
58966;SDS011;44744;51.894;5.080;2024-01-11T13:21:46;23.50;;;12.40;;
58966;SDS011;44744;51.894;5.080;2024-01-11T13:27:05;22.10;;;12.30;;
58966;SDS011;44744;51.894;5.080;2024-01-11T13:32:06;21.00;;;12.10;;
58966;SDS011;44744;51.894;5.080;2024-01-11T13:37:06;21.50;;;12.70;;
58966;SDS011;44744;51.894;5.080;2024-01-11T13:42:07;21.40;;;12.30;;
58966;SDS011;44744;51.894;5.080;2024-01-11T13:47:09;23.20;;;13.90;;
58966;SDS011;44744;51.894;5.080;2024-01-11T13:52:10;22.90;;;13.10;;
58966;SDS011;44744;51.894;5.080;2024-01-11T13:57:10;19.30;;;12.90;;
58966;SDS011;44744;51.894;5.080;2024-01-11T14:02:11;19.50;;;12.30;;
58966;SDS011;44744;51.894;5.080;2024-01-11T14:07:12;21.40;;;13.50;;
58966;SDS011;44744;51.894;5.080;2024-01-11T14:12:12;21.80;;;13.50;;
58966;SDS011;44744;51.894;5.080;2024-01-11T14:17:15;22.00;;;13.20;;
58966;SDS011;44744;51.894;5.080;2024-01-11T14:22:17;23.10;;;13.60;;
58966;SDS011;44744;51.894;5.080;2024-01-11T14:27:17;19.60;;;12.90;;
58966;SDS011;44744;51.894;5.080;2024-01-11T14:32:21;22.90;;;13.60;;
58966;SDS011;44744;51.894;5.080;2024-01-11T14:37:21;23.20;;;13.60;;
58966;SDS011;44744;51.894;5.080;2024-01-11T14:42:22;22.90;;;13.60;;
58966;SDS011;44744;51.894;5.080;2024-01-11T14:47:23;27.50;;;14.10;;
58966;SDS011;44744;51.894;5.080;2024-01-11T14:52:25;23.70;;;13.50;;
58966;SDS011;44744;51.894;5.080;2024-01-11T14:57:26;20.80;;;12.70;;
58966;SDS011;44744;51.894;5.080;2024-01-11T15:02:26;26.60;;;14.00;;
58966;SDS011;44744;51.894;5.080;2024-01-11T15:07:27;21.40;;;12.50;;
58966;SDS011;44744;51.894;5.080;2024-01-11T15:12:28;22.70;;;14.10;;
58966;SDS011;44744;51.894;5.080;2024-01-11T15:17:29;19.70;;;12.40;;
58966;SDS011;44744;51.894;5.080;2024-01-11T15:22:30;24.00;;;13.20;;
58966;SDS011;44744;51.894;5.080;2024-01-11T15:27:31;18.50;;;11.90;;
58966;SDS011;44744;51.894;5.080;2024-01-11T15:32:32;24.70;;;13.50;;
58966;SDS011;44744;51.894;5.080;2024-01-11T15:37:32;25.60;;;13.00;;
58966;SDS011;44744;51.894;5.080;2024-01-11T15:42:35;21.70;;;13.20;;
58966;SDS011;44744;51.894;5.080;2024-01-11T15:47:35;25.20;;;13.80;;
58966;SDS011;44744;51.894;5.080;2024-01-11T15:52:37;24.50;;;14.70;;
58966;SDS011;44744;51.894;5.080;2024-01-11T15:57:38;24.00;;;12.80;;
58966;SDS011;44744;51.894;5.080;2024-01-11T16:02:42;23.90;;;13.00;;
58966;SDS011;44744;51.894;5.080;2024-01-11T16:07:43;24.60;;;14.60;;
58966;SDS011;44744;51.894;5.080;2024-01-11T16:12:43;28.00;;;16.30;;
58966;SDS011;44744;51.894;5.080;2024-01-11T16:17:44;23.70;;;15.10;;
58966;SDS011;44744;51.894;5.080;2024-01-11T16:22:44;27.20;;;15.70;;
58966;SDS011;44744;51.894;5.080;2024-01-11T16:27:48;24.50;;;15.70;;
58966;SDS011;44744;51.894;5.080;2024-01-11T16:32:49;28.70;;;17.20;;
58966;SDS011;44744;51.894;5.080;2024-01-11T16:37:50;28.90;;;15.40;;
58966;SDS011;44744;51.894;5.080;2024-01-11T16:43:07;30.60;;;17.00;;
58966;SDS011;44744;51.894;5.080;2024-01-11T16:48:11;27.60;;;16.40;;
58966;SDS011;44744;51.894;5.080;2024-01-11T16:53:16;30.90;;;17.70;;
58966;SDS011;44744;51.894;5.080;2024-01-11T16:58:17;28.80;;;18.20;;
58966;SDS011;44744;51.894;5.080;2024-01-11T17:03:17;31.80;;;18.60;;
58966;SDS011;44744;51.894;5.080;2024-01-11T17:08:18;31.30;;;17.60;;
58966;SDS011;44744;51.894;5.080;2024-01-11T17:13:19;30.20;;;15.80;;
58966;SDS011;44744;51.894;5.080;2024-01-11T17:18:20;26.60;;;15.70;;
58966;SDS011;44744;51.894;5.080;2024-01-11T17:23:20;26.40;;;16.00;;
58966;SDS011;44744;51.894;5.080;2024-01-11T17:28:21;27.30;;;16.50;;
58966;SDS011;44744;51.894;5.080;2024-01-11T17:33:21;24.60;;;15.90;;
58966;SDS011;44744;51.894;5.080;2024-01-11T17:38:22;26.10;;;14.70;;
58966;SDS011;44744;51.894;5.080;2024-01-11T17:43:22;23.70;;;15.50;;
58966;SDS011;44744;51.894;5.080;2024-01-11T17:48:23;25.40;;;16.70;;
58966;SDS011;44744;51.894;5.080;2024-01-11T17:53:23;25.40;;;15.00;;
58966;SDS011;44744;51.894;5.080;2024-01-11T17:58:24;25.00;;;14.50;;
58966;SDS011;44744;51.894;5.080;2024-01-11T18:03:24;21.70;;;13.90;;
58966;SDS011;44744;51.894;5.080;2024-01-11T18:08:25;21.40;;;14.00;;
58966;SDS011;44744;51.894;5.080;2024-01-11T18:13:25;24.60;;;15.10;;
58966;SDS011;44744;51.894;5.080;2024-01-11T18:18:28;24.80;;;15.00;;
58966;SDS011;44744;51.894;5.080;2024-01-11T18:23:30;24.20;;;16.20;;
58966;SDS011;44744;51.894;5.080;2024-01-11T18:28:30;25.50;;;15.30;;
58966;SDS011;44744;51.894;5.080;2024-01-11T18:36:48;28.30;;;17.40;;
58966;SDS011;44744;51.894;5.080;2024-01-11T18:41:48;23.10;;;14.70;;
58966;SDS011;44744;51.894;5.080;2024-01-11T18:46:51;26.20;;;17.10;;
58966;SDS011;44744;51.894;5.080;2024-01-11T18:51:52;24.40;;;15.50;;
58966;SDS011;44744;51.894;5.080;2024-01-11T18:56:52;22.70;;;15.00;;
58966;SDS011;44744;51.894;5.080;2024-01-11T19:01:53;20.80;;;13.60;;
58966;SDS011;44744;51.894;5.080;2024-01-11T19:06:54;22.30;;;14.80;;
58966;SDS011;44744;51.894;5.080;2024-01-11T19:11:55;22.80;;;14.70;;
58966;SDS011;44744;51.894;5.080;2024-01-11T19:16:58;24.80;;;16.70;;
58966;SDS011;44744;51.894;5.080;2024-01-11T19:21:58;21.30;;;15.20;;
58966;SDS011;44744;51.894;5.080;2024-01-11T19:27:02;23.30;;;16.20;;
58966;SDS011;44744;51.894;5.080;2024-01-11T19:32:03;24.80;;;15.80;;
58966;SDS011;44744;51.894;5.080;2024-01-11T19:37:04;24.70;;;16.30;;
58966;SDS011;44744;51.894;5.080;2024-01-11T19:42:04;23.40;;;14.30;;
58966;SDS011;44744;51.894;5.080;2024-01-11T19:47:06;26.10;;;16.40;;
58966;SDS011;44744;51.894;5.080;2024-01-11T19:52:06;27.40;;;16.70;;
58966;SDS011;44744;51.894;5.080;2024-01-11T19:57:07;23.00;;;15.10;;
58966;SDS011;44744;51.894;5.080;2024-01-11T20:02:07;23.50;;;15.00;;
58966;SDS011;44744;51.894;5.080;2024-01-11T20:07:10;25.60;;;15.80;;
58966;SDS011;44744;51.894;5.080;2024-01-11T20:12:11;22.80;;;15.60;;
58966;SDS011;44744;51.894;5.080;2024-01-11T20:17:11;21.30;;;14.20;;
58966;SDS011;44744;51.894;5.080;2024-01-11T20:22:11;24.40;;;15.20;;
58966;SDS011;44744;51.894;5.080;2024-01-11T20:27:12;23.70;;;14.90;;
58966;SDS011;44744;51.894;5.080;2024-01-11T20:32:12;23.40;;;14.80;;
58966;SDS011;44744;51.894;5.080;2024-01-11T20:37:13;20.30;;;13.20;;
58966;SDS011;44744;51.894;5.080;2024-01-11T20:42:14;21.30;;;14.30;;
58966;SDS011;44744;51.894;5.080;2024-01-11T20:47:15;22.30;;;15.00;;
58966;SDS011;44744;51.894;5.080;2024-01-11T20:52:16;20.90;;;14.70;;
58966;SDS011;44744;51.894;5.080;2024-01-11T20:57:18;27.70;;;18.00;;
58966;SDS011;44744;51.894;5.080;2024-01-11T21:02:20;26.70;;;17.10;;
58966;SDS011;44744;51.894;5.080;2024-01-11T21:07:20;29.00;;;17.00;;
58966;SDS011;44744;51.894;5.080;2024-01-11T21:12:21;25.40;;;15.80;;
58966;SDS011;44744;51.894;5.080;2024-01-11T21:17:22;28.40;;;16.30;;
58966;SDS011;44744;51.894;5.080;2024-01-11T21:22:22;28.80;;;14.60;;
58966;SDS011;44744;51.894;5.080;2024-01-11T21:27:23;29.00;;;13.80;;
58966;SDS011;44744;51.894;5.080;2024-01-11T21:32:23;25.10;;;14.40;;
58966;SDS011;44744;51.894;5.080;2024-01-11T21:37:24;24.20;;;12.90;;
58966;SDS011;44744;51.894;5.080;2024-01-11T21:42:25;28.40;;;13.80;;
58966;SDS011;44744;51.894;5.080;2024-01-11T21:47:26;23.70;;;13.10;;
58966;SDS011;44744;51.894;5.080;2024-01-11T21:52:26;26.10;;;12.40;;
58966;SDS011;44744;51.894;5.080;2024-01-11T21:57:27;24.80;;;12.00;;
58966;SDS011;44744;51.894;5.080;2024-01-11T22:02:28;21.80;;;12.20;;
58966;SDS011;44744;51.894;5.080;2024-01-11T22:07:29;26.10;;;12.60;;
58966;SDS011;44744;51.894;5.080;2024-01-11T22:12:29;24.90;;;12.90;;
58966;SDS011;44744;51.894;5.080;2024-01-11T22:17:30;22.80;;;11.70;;
58966;SDS011;44744;51.894;5.080;2024-01-11T22:22:33;20.50;;;11.30;;
58966;SDS011;44744;51.894;5.080;2024-01-11T22:27:33;27.50;;;13.40;;
58966;SDS011;44744;51.894;5.080;2024-01-11T22:32:34;25.40;;;12.30;;
58966;SDS011;44744;51.894;5.080;2024-01-11T22:37:38;22.80;;;12.70;;
58966;SDS011;44744;51.894;5.080;2024-01-11T22:42:38;29.00;;;12.20;;
58966;SDS011;44744;51.894;5.080;2024-01-11T22:47:42;22.60;;;11.40;;
58966;SDS011;44744;51.894;5.080;2024-01-11T22:52:46;25.10;;;13.70;;
58966;SDS011;44744;51.894;5.080;2024-01-11T22:57:46;22.10;;;11.20;;
58966;SDS011;44744;51.894;5.080;2024-01-11T23:02:49;28.40;;;11.80;;
58966;SDS011;44744;51.894;5.080;2024-01-11T23:12:50;20.70;;;10.60;;
58966;SDS011;44744;51.894;5.080;2024-01-11T23:17:51;22.40;;;11.80;;
58966;SDS011;44744;51.894;5.080;2024-01-11T23:22:51;30.90;;;14.00;;
58966;SDS011;44744;51.894;5.080;2024-01-11T23:27:52;36.30;;;14.70;;
58966;SDS011;44744;51.894;5.080;2024-01-11T23:32:52;31.00;;;14.20;;
58966;SDS011;44744;51.894;5.080;2024-01-11T23:37:53;22.20;;;9.50;;
58966;SDS011;44744;51.894;5.080;2024-01-11T23:42:54;24.80;;;9.50;;
58966;SDS011;44744;51.894;5.080;2024-01-11T23:47:54;21.40;;;8.90;;
58966;SDS011;44744;51.894;5.080;2024-01-11T23:52:54;26.40;;;9.70;;
58966;SDS011;44744;51.894;5.080;2024-01-11T23:57:55;21.80;;;9.10;;
